createdAt,value
2017-04-18T00:00:19.751Z,75.50
2017-04-18T00:01:18.275Z,76.83
2017-04-18T00:02:16.810Z,75.63
2017-04-18T00:03:15.378Z,75.44
2017-04-18T00:04:13.940Z,76.27
2017-04-18T00:05:12.517Z,75.56
2017-04-18T00:06:11.431Z,75.81
2017-04-18T00:07:09.965Z,76.20
2017-04-18T00:08:08.546Z,76.23
2017-04-18T00:09:07.642Z,75.69
2017-04-18T00:10:06.203Z,75.19
2017-04-18T00:11:04.729Z,75.12
2017-04-18T00:12:03.571Z,75.37
2017-04-18T00:13:02.193Z,74.90
2017-04-18T00:14:00.755Z,75.43
2017-04-18T00:14:59.271Z,75.00
2017-04-18T00:15:57.848Z,74.92
2017-04-18T00:16:56.380Z,75.11
2017-04-18T00:17:55.054Z,75.05
2017-04-18T00:18:53.624Z,75.06
2017-04-18T00:19:52.225Z,74.82
2017-04-18T00:20:50.948Z,74.95
2017-04-18T00:21:49.588Z,75.71
2017-04-18T00:22:48.111Z,75.27
2017-04-18T00:23:46.688Z,75.61
2017-04-18T00:24:45.181Z,74.93
2017-04-18T00:25:43.781Z,75.48
2017-04-18T00:26:42.311Z,75.86
2017-04-18T00:27:40.997Z,75.47
2017-04-18T00:28:39.632Z,75.93
2017-04-18T00:29:38.587Z,75.85
2017-04-18T00:30:37.110Z,76.21
2017-04-18T00:31:35.607Z,74.86
2017-04-18T00:32:34.199Z,75.18
2017-04-18T00:33:32.744Z,74.75
2017-04-18T00:34:31.259Z,76.18
2017-04-18T00:35:29.868Z,76.02
2017-04-18T00:36:28.403Z,76.27
2017-04-18T00:37:26.986Z,76.06
2017-04-18T00:38:25.575Z,76.84
2017-04-18T00:39:24.079Z,76.88
2017-04-18T00:40:22.614Z,76.02
2017-04-18T00:41:21.994Z,76.20
2017-04-18T00:42:20.503Z,76.09
2017-04-18T00:43:19.051Z,75.62
2017-04-18T00:44:17.627Z,75.77
2017-04-18T00:45:16.142Z,77.00
2017-04-18T00:46:14.705Z,77.69
2017-04-18T00:47:13.707Z,77.11
2017-04-18T00:48:12.218Z,76.32
2017-04-18T00:49:10.716Z,76.06
2017-04-18T00:50:09.335Z,76.01
2017-04-18T00:51:07.908Z,75.83
2017-04-18T00:52:06.434Z,75.90
2017-04-18T00:53:05.395Z,75.66
2017-04-18T00:54:03.928Z,76.18
2017-04-18T00:55:02.587Z,75.79
2017-04-18T00:56:01.156Z,76.20
2017-04-18T00:56:59.667Z,76.01
2017-04-18T00:57:58.259Z,76.49
2017-04-18T00:58:57.132Z,76.49
2017-04-18T00:59:55.800Z,76.33
2017-04-18T01:00:54.418Z,76.58
2017-04-18T01:01:53.068Z,76.97
2017-04-18T01:02:51.635Z,76.96
2017-04-18T01:03:50.320Z,76.98
2017-04-18T01:04:49.391Z,76.94
2017-04-18T01:05:47.933Z,76.67
2017-04-18T01:06:46.502Z,77.05
2017-04-18T01:07:51.523Z,76.97
2017-04-18T01:08:50.099Z,77.07
2017-04-18T01:09:48.699Z,76.88
2017-04-18T01:10:47.235Z,77.17
2017-04-18T01:11:46.029Z,77.95
2017-04-18T01:12:44.567Z,78.26
2017-04-18T01:13:43.065Z,78.33
2017-04-18T01:14:41.719Z,78.83
2017-04-18T01:15:40.600Z,78.95
2017-04-18T01:16:39.243Z,78.97
2017-04-18T01:17:37.711Z,78.36
2017-04-18T01:18:36.187Z,78.40
2017-04-18T01:19:34.748Z,78.11
2017-04-18T01:20:33.253Z,78.14
2017-04-18T01:21:32.239Z,78.25
2017-04-18T01:22:30.775Z,78.39
2017-04-18T01:23:29.304Z,78.44
2017-04-18T01:24:27.832Z,78.48
2017-04-18T01:25:26.404Z,79.42
2017-04-18T01:26:25.041Z,79.69
2017-04-18T01:27:24.029Z,78.85
2017-04-18T01:28:22.537Z,78.91
2017-04-18T01:29:21.071Z,78.92
2017-04-18T01:30:19.594Z,78.85
2017-04-18T01:31:18.119Z,78.74
2017-04-18T01:32:16.740Z,78.25
2017-04-18T01:33:15.655Z,77.94
2017-04-18T01:34:14.242Z,78.14
2017-04-18T01:35:12.903Z,78.25
2017-04-18T01:36:11.574Z,77.81
2017-04-18T01:37:10.190Z,78.16
2017-04-18T01:38:08.866Z,78.62
2017-04-18T01:39:07.747Z,78.83
2017-04-18T01:40:11.413Z,78.15
2017-04-18T01:42:17.852Z,78.25
2017-04-18T01:43:21.805Z,78.32
2017-04-18T01:44:26.026Z,78.85
2017-04-18T01:46:30.459Z,78.88
2017-04-18T01:47:28.988Z,79.08
2017-04-18T01:48:27.542Z,79.43
2017-04-18T01:49:26.448Z,78.85
2017-04-18T01:50:24.946Z,79.84
2017-04-18T01:51:23.511Z,79.74
2017-04-18T01:52:22.027Z,79.54
2017-04-18T01:53:20.519Z,80.36
2017-04-18T01:54:19.064Z,80.06
2017-04-18T01:55:17.992Z,79.15
2017-04-18T01:56:16.492Z,78.90
2017-04-18T01:57:15.115Z,78.72
2017-04-18T01:58:13.787Z,78.21
2017-04-18T01:59:12.375Z,78.17
2017-04-18T02:00:10.996Z,79.34
2017-04-18T02:01:10.035Z,79.41
2017-04-18T02:02:08.603Z,79.32
2017-04-18T02:03:07.168Z,79.00
2017-04-18T02:04:05.707Z,79.32
2017-04-18T02:05:04.233Z,79.80
2017-04-18T02:06:02.849Z,79.57
2017-04-18T02:07:01.784Z,79.42
2017-04-18T02:08:00.442Z,79.35
2017-04-18T02:08:58.972Z,80.01
2017-04-18T02:09:57.564Z,79.68
2017-04-18T02:10:56.119Z,79.37
2017-04-18T02:11:54.670Z,79.81
2017-04-18T02:12:53.239Z,80.18
2017-04-18T02:13:51.816Z,79.89
2017-04-18T02:14:50.356Z,79.70
2017-04-18T02:15:48.888Z,79.85
2017-04-18T02:16:47.407Z,79.01
2017-04-18T02:17:45.991Z,79.66
2017-04-18T02:18:44.963Z,78.75
2017-04-18T02:19:43.526Z,78.44
2017-04-18T02:20:42.058Z,78.91
2017-04-18T02:21:40.561Z,78.45
2017-04-18T02:22:39.127Z,77.93
2017-04-18T02:23:37.614Z,78.57
2017-04-18T02:24:36.351Z,79.07
2017-04-18T02:25:34.898Z,78.86
2017-04-18T02:26:33.426Z,78.42
2017-04-18T02:27:31.955Z,78.32
2017-04-18T02:28:30.515Z,78.17
2017-04-18T02:29:29.108Z,78.35
2017-04-18T02:30:28.037Z,78.81
2017-04-18T02:31:26.533Z,79.45
2017-04-18T02:32:25.195Z,79.32
2017-04-18T02:33:23.732Z,79.78
2017-04-18T02:34:22.274Z,79.28
2017-04-18T02:35:20.786Z,79.25
2017-04-18T02:36:19.668Z,79.82
2017-04-18T02:37:18.289Z,79.77
2017-04-18T02:38:16.936Z,79.47
2017-04-18T02:39:15.454Z,79.25
2017-04-18T02:40:14.016Z,79.19
2017-04-18T02:41:12.542Z,79.28
2017-04-18T02:42:11.164Z,79.11
2017-04-18T02:43:09.700Z,79.29
2017-04-18T02:44:08.252Z,79.14
2017-04-18T02:45:06.887Z,79.55
2017-04-18T02:46:05.422Z,78.98
2017-04-18T02:47:03.949Z,78.53
2017-04-18T02:48:02.775Z,78.75
2017-04-18T02:49:01.298Z,78.72
2017-04-18T02:49:59.824Z,79.48
2017-04-18T02:50:58.398Z,78.94
2017-04-18T02:51:56.967Z,79.11
2017-04-18T02:52:55.483Z,78.75
2017-04-18T02:53:54.030Z,78.78
2017-04-18T02:54:52.530Z,78.91
2017-04-18T02:55:51.121Z,79.00
2017-04-18T02:56:49.727Z,79.03
2017-04-18T02:57:48.228Z,79.11
2017-04-18T02:58:46.933Z,79.22
2017-04-18T02:59:45.766Z,79.00
2017-04-18T03:00:44.359Z,79.28
2017-04-18T03:01:42.991Z,79.60
2017-04-18T03:02:41.608Z,79.62
2017-04-18T03:03:40.163Z,79.38
2017-04-18T03:04:38.663Z,79.51
2017-04-18T03:05:37.601Z,78.69
2017-04-18T03:06:36.215Z,78.48
2017-04-18T03:07:34.851Z,78.78
2017-04-18T03:08:33.611Z,78.80
2017-04-18T03:09:32.135Z,79.07
2017-04-18T03:10:30.651Z,79.00
2017-04-18T03:11:29.331Z,79.08
2017-04-18T03:12:27.828Z,79.33
2017-04-18T03:13:26.452Z,78.96
2017-04-18T03:14:25.017Z,78.90
2017-04-18T03:15:23.549Z,78.84
2017-04-18T03:16:22.058Z,79.12
2017-04-18T03:17:21.081Z,79.49
2017-04-18T03:18:19.650Z,79.27
2017-04-18T03:19:18.151Z,79.10
2017-04-18T03:20:16.647Z,79.11
2017-04-18T03:21:15.128Z,78.57
2017-04-18T03:22:13.623Z,78.92
2017-04-18T03:23:12.542Z,78.98
2017-04-18T03:24:11.055Z,79.10
2017-04-18T03:25:09.543Z,79.25
2017-04-18T03:26:08.043Z,79.09
2017-04-18T03:27:06.535Z,78.91
2017-04-18T03:28:05.138Z,78.52
2017-04-18T03:29:04.031Z,78.36
2017-04-18T03:30:02.615Z,78.22
2017-04-18T03:31:01.147Z,78.00
2017-04-18T03:31:59.650Z,78.32
2017-04-18T03:32:58.150Z,78.81
2017-04-18T03:33:56.690Z,78.73
2017-04-18T03:34:55.496Z,78.79
2017-04-18T03:35:53.999Z,79.19
2017-04-18T03:36:52.490Z,79.56
2017-04-18T03:37:50.998Z,79.49
2017-04-18T03:38:49.558Z,79.46
2017-04-18T03:39:48.176Z,79.72
2017-04-18T03:40:47.135Z,79.98
2017-04-18T03:41:45.628Z,80.22
2017-04-18T03:42:44.197Z,79.99
2017-04-18T03:43:42.739Z,79.45
2017-04-18T03:44:41.339Z,79.13
2017-04-18T03:45:39.947Z,79.68
2017-04-18T03:46:38.778Z,79.75
2017-04-18T03:47:37.331Z,79.85
2017-04-18T03:48:35.940Z,79.84
2017-04-18T03:49:34.435Z,79.24
2017-04-18T03:50:33.608Z,79.63
2017-04-18T03:51:32.274Z,79.60
2017-04-18T03:52:31.240Z,79.74
2017-04-18T03:53:29.787Z,79.96
2017-04-18T03:54:28.288Z,80.46
2017-04-18T03:55:26.851Z,80.04
2017-04-18T03:56:25.411Z,80.05
2017-04-18T03:57:23.940Z,80.05
2017-04-18T03:58:22.478Z,79.51
2017-04-18T03:59:20.982Z,79.76
2017-04-18T04:00:19.615Z,79.67
2017-04-18T04:01:18.162Z,79.73
2017-04-18T04:02:16.754Z,80.07
2017-04-18T04:03:15.610Z,80.56
2017-04-18T04:04:14.176Z,80.35
2017-04-18T04:05:12.699Z,79.74
2017-04-18T04:06:11.205Z,79.20
2017-04-18T04:07:09.734Z,78.99
2017-04-18T04:08:08.250Z,79.07
2017-04-18T04:09:06.855Z,79.31
2017-04-18T04:10:05.477Z,79.32
2017-04-18T04:11:04.065Z,79.55
2017-04-18T04:12:02.559Z,79.54
2017-04-18T04:13:01.054Z,79.58
2017-04-18T04:13:59.979Z,79.84
2017-04-18T04:14:58.529Z,79.63
2017-04-18T04:15:57.023Z,78.98
2017-04-18T04:16:55.563Z,79.57
2017-04-18T04:17:54.170Z,80.01
2017-04-18T04:18:52.728Z,79.96
2017-04-18T04:19:51.275Z,79.12
2017-04-18T04:20:49.781Z,79.00
2017-04-18T04:21:48.313Z,79.33
2017-04-18T04:22:46.822Z,79.14
2017-04-18T04:23:45.404Z,79.41
2017-04-18T04:24:44.239Z,79.64
2017-04-18T04:25:42.978Z,79.69
2017-04-18T04:26:41.464Z,79.35
2017-04-18T04:27:39.924Z,79.29
2017-04-18T04:28:38.432Z,79.24
2017-04-18T04:29:36.972Z,80.07
2017-04-18T04:30:35.607Z,81.00
2017-04-18T04:31:34.203Z,81.13
2017-04-18T04:32:32.880Z,81.56
2017-04-18T04:33:31.436Z,81.27
2017-04-18T04:34:29.934Z,81.04
2017-04-18T04:35:28.507Z,80.64
2017-04-18T04:36:27.027Z,80.98
2017-04-18T04:37:25.586Z,80.53
2017-04-18T04:38:24.238Z,80.18
2017-04-18T04:39:22.864Z,80.41
2017-04-18T04:40:21.519Z,80.95
2017-04-18T04:41:20.047Z,80.78
2017-04-18T04:42:18.564Z,81.05
2017-04-18T04:43:17.068Z,81.73
2017-04-18T04:44:15.599Z,82.03
2017-04-18T04:45:14.113Z,81.85
2017-04-18T04:46:12.956Z,81.80
2017-04-18T04:47:11.542Z,80.68
2017-04-18T04:48:10.136Z,81.35
2017-04-18T04:49:08.678Z,81.38
2017-04-18T04:50:07.187Z,81.31
2017-04-18T04:51:05.705Z,81.07
2017-04-18T04:52:04.450Z,81.07
2017-04-18T04:53:02.980Z,81.31
2017-04-18T04:54:01.487Z,81.24
2017-04-18T04:54:59.981Z,81.80
2017-04-18T04:55:58.547Z,81.85
2017-04-18T04:56:57.060Z,81.00
2017-04-18T04:57:55.824Z,80.88
2017-04-18T04:58:54.334Z,81.36
2017-04-18T04:59:52.956Z,80.15
2017-04-18T05:00:51.503Z,80.26
2017-04-18T05:01:50.023Z,80.65
2017-04-18T05:02:48.542Z,80.39
2017-04-18T05:03:47.268Z,80.82
2017-04-18T05:04:45.776Z,80.89
2017-04-18T05:05:44.329Z,80.66
2017-04-18T05:06:42.940Z,80.78
2017-04-18T05:07:41.524Z,80.74
2017-04-18T05:08:40.020Z,80.81
2017-04-18T05:09:38.707Z,80.61
2017-04-18T05:10:37.227Z,79.98
2017-04-18T05:11:35.776Z,80.13
2017-04-18T05:12:34.296Z,79.76
2017-04-18T05:13:32.816Z,79.76
2017-04-18T05:14:31.325Z,79.67
2017-04-18T05:15:29.902Z,78.95
2017-04-18T05:16:28.443Z,79.41
2017-04-18T05:17:27.049Z,80.02
2017-04-18T05:18:25.538Z,79.52
2017-04-18T05:19:24.022Z,79.60
2017-04-18T05:20:22.559Z,79.78
2017-04-18T05:21:21.375Z,79.06
2017-04-18T05:22:20.832Z,79.75
2017-04-18T05:23:19.460Z,80.25
2017-04-18T05:24:18.075Z,80.19
2017-04-18T05:25:16.575Z,80.13
2017-04-18T05:26:15.064Z,80.18
2017-04-18T05:27:13.615Z,80.47
2017-04-18T05:28:12.091Z,80.48
2017-04-18T05:29:10.655Z,80.20
2017-04-18T05:30:09.343Z,79.79
2017-04-18T05:31:07.983Z,80.15
2017-04-18T05:32:06.694Z,79.30
2017-04-18T05:33:05.199Z,79.45
2017-04-18T05:34:03.859Z,79.27
2017-04-18T05:35:02.413Z,79.38
2017-04-18T05:36:01.064Z,79.18
2017-04-18T05:36:59.719Z,78.92
2017-04-18T05:37:58.559Z,79.39
2017-04-18T05:38:57.072Z,79.29
2017-04-18T05:39:55.591Z,79.76
2017-04-18T05:40:54.117Z,79.47
2017-04-18T05:41:52.678Z,79.13
2017-04-18T05:42:51.382Z,79.83
2017-04-18T05:43:50.194Z,79.58
2017-04-18T05:44:48.728Z,79.47
2017-04-18T05:45:47.523Z,79.18
2017-04-18T05:46:46.056Z,79.38
2017-04-18T05:47:44.602Z,79.80
2017-04-18T05:48:43.242Z,79.28
2017-04-18T05:49:42.179Z,79.25
2017-04-18T05:50:40.736Z,79.67
2017-04-18T05:51:39.337Z,79.51
2017-04-18T05:52:38.230Z,80.11
2017-04-18T05:53:37.098Z,79.97
2017-04-18T05:54:36.405Z,79.45
2017-04-18T05:55:37.274Z,79.38
2017-04-18T05:56:35.972Z,79.02
2017-04-18T05:57:34.494Z,78.39
2017-04-18T05:58:33.135Z,77.68
2017-04-18T05:59:31.691Z,78.41
2017-04-18T06:00:30.236Z,79.46
2017-04-18T06:01:28.947Z,78.96
2017-04-18T06:02:27.457Z,78.65
2017-04-18T06:03:25.954Z,78.75
2017-04-18T06:04:24.469Z,77.79
2017-04-18T06:05:23.060Z,78.03
2017-04-18T06:06:21.639Z,78.04
2017-04-18T06:07:20.539Z,78.60
2017-04-18T06:08:19.122Z,79.14
2017-04-18T06:09:17.662Z,79.71
2017-04-18T06:10:16.255Z,79.91
2017-04-18T06:11:14.855Z,80.08
2017-04-18T06:12:13.407Z,79.92
2017-04-18T06:13:12.097Z,79.95
2017-04-18T06:14:10.598Z,80.95
2017-04-18T06:15:09.215Z,80.67
2017-04-18T06:16:07.735Z,80.85
2017-04-18T06:17:06.238Z,81.04
2017-04-18T06:18:04.749Z,80.40
2017-04-18T06:19:03.439Z,79.50
2017-04-18T06:20:01.963Z,79.59
2017-04-18T06:21:00.612Z,79.88
2017-04-18T06:21:59.222Z,79.54
2017-04-18T06:22:57.763Z,79.17
2017-04-18T06:23:56.333Z,78.90
2017-04-18T06:24:55.015Z,78.94
2017-04-18T06:25:53.737Z,78.82
2017-04-18T06:26:52.303Z,79.40
2017-04-18T06:27:50.834Z,79.19
2017-04-18T06:28:49.347Z,78.78
2017-04-18T06:29:47.894Z,79.48
2017-04-18T06:30:46.588Z,79.60
2017-04-18T06:31:45.151Z,78.55
2017-04-18T06:32:43.803Z,79.03
2017-04-18T06:33:42.436Z,79.10
2017-04-18T06:34:41.015Z,78.91
2017-04-18T06:35:39.542Z,78.64
2017-04-18T06:36:38.342Z,78.82
2017-04-18T06:37:36.963Z,78.69
2017-04-18T06:38:35.496Z,79.03
2017-04-18T06:39:34.052Z,79.50
2017-04-18T06:40:32.559Z,79.53
2017-04-18T06:41:31.131Z,79.51
2017-04-18T06:42:29.891Z,79.08
2017-04-18T06:43:28.414Z,78.34
2017-04-18T06:44:27.056Z,78.09
2017-04-18T06:45:25.663Z,78.48
2017-04-18T06:46:24.238Z,77.83
2017-04-18T06:47:22.735Z,78.15
2017-04-18T06:48:21.435Z,78.26
2017-04-18T06:49:19.988Z,78.22
2017-04-18T06:50:18.507Z,77.19
2017-04-18T06:51:16.999Z,77.36
2017-04-18T06:52:15.999Z,77.37
2017-04-18T06:53:14.532Z,77.12
2017-04-18T06:54:13.277Z,77.04
2017-04-18T06:55:11.823Z,76.80
2017-04-18T06:56:10.395Z,76.65
2017-04-18T06:57:11.023Z,77.00
2017-04-18T06:58:09.675Z,76.69
2017-04-18T06:59:08.196Z,76.78
2017-04-18T07:00:06.754Z,76.89
2017-04-18T07:01:05.269Z,77.43
2017-04-18T07:02:03.836Z,77.52
2017-04-18T07:03:14.045Z,77.59
2017-04-18T07:04:12.816Z,77.06
2017-04-18T07:05:11.623Z,76.07
2017-04-18T07:06:10.265Z,76.15
2017-04-18T07:07:08.790Z,75.73
2017-04-18T07:08:07.383Z,75.65
2017-04-18T07:09:07.431Z,75.99
2017-04-18T07:10:05.986Z,76.18
2017-04-18T07:11:05.038Z,76.10
2017-04-18T07:12:03.696Z,74.91
2017-04-18T07:13:02.250Z,74.59
2017-04-18T07:14:00.790Z,75.28
2017-04-18T07:14:59.321Z,75.76
2017-04-18T07:15:57.866Z,75.43
2017-04-18T07:16:56.412Z,74.86
2017-04-18T07:17:54.929Z,74.98
2017-04-18T07:18:53.480Z,75.08
2017-04-18T07:19:52.003Z,74.67
2017-04-18T07:20:50.558Z,74.89
2017-04-18T07:21:49.395Z,74.89
2017-04-18T07:22:48.089Z,75.29
2017-04-18T07:23:46.614Z,75.47
2017-04-18T07:24:45.179Z,75.59
2017-04-18T07:25:43.777Z,74.92
2017-04-18T07:26:42.415Z,74.53
2017-04-18T07:27:41.452Z,73.45
2017-04-18T07:28:40.040Z,74.35
2017-04-18T07:29:38.574Z,74.31
2017-04-18T07:30:37.099Z,74.21
2017-04-18T07:31:35.827Z,73.30
2017-04-18T07:32:34.400Z,72.69
2017-04-18T07:33:33.334Z,73.04
2017-04-18T07:34:32.040Z,73.59
2017-04-18T07:35:30.712Z,73.57
2017-04-18T07:36:29.291Z,73.44
2017-04-18T07:37:27.872Z,73.21
2017-04-18T07:38:26.460Z,72.93
2017-04-18T07:39:25.169Z,73.17
2017-04-18T07:40:23.717Z,72.10
2017-04-18T07:41:22.220Z,71.96
2017-04-18T07:42:20.785Z,71.29
2017-04-18T07:43:19.388Z,70.48
2017-04-18T07:44:17.907Z,70.60
2017-04-18T07:45:16.789Z,70.03
2017-04-18T07:46:15.350Z,69.59
2017-04-18T07:47:13.900Z,70.13
2017-04-18T07:48:12.426Z,70.60
2017-04-18T07:49:10.982Z,70.58
2017-04-18T07:50:09.580Z,69.80
2017-04-18T07:51:08.639Z,69.04
2017-04-18T07:52:07.167Z,69.48
2017-04-18T07:53:05.844Z,68.91
2017-04-18T07:54:04.466Z,69.19
2017-04-18T07:55:03.029Z,68.88
2017-04-18T07:56:01.527Z,69.14
2017-04-18T07:57:00.274Z,69.65
2017-04-18T07:57:58.788Z,69.70
2017-04-18T07:58:57.306Z,70.22
2017-04-18T07:59:55.908Z,69.47
2017-04-18T08:00:54.443Z,68.34
2017-04-18T08:01:52.991Z,67.41
2017-04-18T08:02:51.687Z,67.18
2017-04-18T08:03:50.187Z,66.51
2017-04-18T08:04:48.696Z,67.14
2017-04-18T08:05:47.226Z,66.83
2017-04-18T08:06:45.816Z,66.36
2017-04-18T08:07:44.522Z,66.63
2017-04-18T08:08:43.359Z,65.78
2017-04-18T08:09:41.882Z,65.04
2017-04-18T08:10:40.491Z,64.32
2017-04-18T08:11:39.117Z,64.83
2017-04-18T08:12:37.725Z,64.55
2017-04-18T08:13:36.215Z,64.15
2017-04-18T08:14:35.000Z,63.67
2017-04-18T08:15:33.531Z,64.29
2017-04-18T08:16:32.028Z,63.54
2017-04-18T08:17:30.519Z,62.46
2017-04-18T08:18:29.011Z,62.42
2017-04-18T08:19:27.507Z,61.86
2017-04-18T08:20:26.080Z,61.07
2017-04-18T08:21:24.618Z,61.06
2017-04-18T08:22:23.238Z,60.55
2017-04-18T08:23:21.892Z,61.28
2017-04-18T08:24:20.575Z,61.35
2017-04-18T08:25:19.507Z,61.35
2017-04-18T08:26:18.023Z,61.09
2017-04-18T08:27:16.531Z,60.33
2017-04-18T08:28:15.061Z,60.54
2017-04-18T08:29:13.571Z,59.77
2017-04-18T08:30:12.074Z,60.59
2017-04-18T08:31:10.842Z,61.37
2017-04-18T08:32:09.331Z,61.46
2017-04-18T08:33:07.848Z,59.88
2017-04-18T08:34:06.423Z,60.20
2017-04-18T08:35:04.975Z,60.42
2017-04-18T08:36:03.511Z,60.47
2017-04-18T08:37:02.280Z,61.06
2017-04-18T08:38:00.862Z,60.11
2017-04-18T08:38:59.319Z,59.78
2017-04-18T08:39:57.879Z,59.13
2017-04-18T08:40:56.465Z,59.23
2017-04-18T08:41:55.069Z,58.48
2017-04-18T08:42:53.830Z,57.69
2017-04-18T08:43:52.435Z,57.79
2017-04-18T08:44:51.108Z,57.29
2017-04-18T08:45:49.646Z,57.64
2017-04-18T08:46:48.178Z,57.94
2017-04-18T08:47:46.723Z,58.10
2017-04-18T08:48:45.569Z,57.98
2017-04-18T08:49:44.125Z,57.73
2017-04-18T08:50:42.669Z,58.43
2017-04-18T08:51:41.164Z,56.48
2017-04-18T08:52:39.774Z,57.08
2017-04-18T08:53:38.294Z,56.88
2017-04-18T08:54:37.011Z,57.06
2017-04-18T08:55:35.519Z,57.26
2017-04-18T08:56:34.063Z,57.62
2017-04-18T08:57:32.586Z,58.06
2017-04-18T08:58:31.174Z,56.79
2017-04-18T08:59:29.739Z,56.19
2017-04-18T09:00:28.446Z,56.25
2017-04-18T09:01:27.107Z,57.06
2017-04-18T09:02:25.888Z,57.09
2017-04-18T09:03:24.415Z,58.32
2017-04-18T09:04:22.932Z,57.80
2017-04-18T09:05:21.443Z,56.76
2017-04-18T09:06:20.379Z,57.22
2017-04-18T09:07:18.902Z,56.63
2017-04-18T09:08:17.594Z,56.26
2017-04-18T09:09:16.221Z,55.06
2017-04-18T09:10:14.851Z,54.99
2017-04-18T09:11:13.507Z,51.71
2017-04-18T09:12:12.435Z,51.90
2017-04-18T09:13:10.934Z,50.75
2017-04-18T09:14:09.468Z,51.27
2017-04-18T09:15:08.031Z,51.82
2017-04-18T09:16:06.643Z,51.36
2017-04-18T09:17:05.215Z,51.00
2017-04-18T09:18:04.209Z,52.84
2017-04-18T09:19:02.765Z,52.27
2017-04-18T09:20:01.286Z,52.52
2017-04-18T09:20:59.950Z,52.67
2017-04-18T09:21:58.618Z,53.21
2017-04-18T09:22:57.220Z,53.30
2017-04-18T09:23:56.138Z,52.31
2017-04-18T09:24:54.718Z,52.22
2017-04-18T09:25:53.259Z,52.12
2017-04-18T09:26:51.836Z,52.60
2017-04-18T09:27:50.360Z,51.25
2017-04-18T09:28:48.903Z,48.60
2017-04-18T09:29:47.595Z,48.75
2017-04-18T09:30:46.156Z,50.00
2017-04-18T09:31:44.679Z,51.29
2017-04-18T09:32:43.296Z,52.16
2017-04-18T09:33:41.870Z,51.72
2017-04-18T09:34:40.408Z,53.15
2017-04-18T09:35:39.217Z,53.27
2017-04-18T09:36:37.817Z,52.34
2017-04-18T09:37:36.335Z,53.50
2017-04-18T09:38:35.196Z,52.77
2017-04-18T09:39:33.731Z,52.74
2017-04-18T09:40:32.508Z,53.42
2017-04-18T09:41:31.471Z,54.30
2017-04-18T09:42:30.054Z,54.27
2017-04-18T09:43:28.635Z,54.01
2017-04-18T09:44:27.232Z,53.78
2017-04-18T09:45:25.763Z,53.66
2017-04-18T09:46:24.272Z,53.06
2017-04-18T09:47:22.998Z,52.14
2017-04-18T09:48:21.519Z,52.19
2017-04-18T09:49:20.139Z,52.58
2017-04-18T09:50:18.697Z,52.09
2017-04-18T09:51:17.479Z,52.62
2017-04-18T09:52:16.106Z,52.76
2017-04-18T09:53:14.853Z,52.58
2017-04-18T09:54:13.426Z,52.83
2017-04-18T09:55:11.976Z,51.20
2017-04-18T09:56:10.494Z,51.41
2017-04-18T09:57:09.007Z,50.74
2017-04-18T09:58:07.650Z,49.99
2017-04-18T09:59:06.374Z,50.03
2017-04-18T10:00:05.017Z,50.37
2017-04-18T10:01:03.547Z,50.06
2017-04-18T10:02:02.156Z,49.91
2017-04-18T10:03:00.828Z,49.41
2017-04-18T10:03:59.408Z,49.17
2017-04-18T10:04:58.084Z,47.47
2017-04-18T10:05:56.656Z,47.78
2017-04-18T10:06:55.272Z,47.55
2017-04-18T10:07:53.895Z,47.25
2017-04-18T10:08:52.433Z,46.95
2017-04-18T10:09:51.219Z,47.54
2017-04-18T10:10:49.792Z,47.83
2017-04-18T10:11:48.327Z,48.13
2017-04-18T10:12:46.873Z,47.62
2017-04-18T10:13:45.426Z,47.54
2017-04-18T10:14:44.117Z,47.78
2017-04-18T10:15:42.692Z,47.78
2017-04-18T10:16:41.587Z,46.66
2017-04-18T10:17:40.102Z,45.45
2017-04-18T10:18:38.611Z,46.01
2017-04-18T10:19:37.143Z,46.26
2017-04-18T10:20:36.040Z,46.32
2017-04-18T10:21:34.651Z,46.57
2017-04-18T10:22:33.176Z,46.04
2017-04-18T10:23:31.778Z,45.85
2017-04-18T10:24:30.281Z,45.64
2017-04-18T10:25:28.808Z,46.54
2017-04-18T10:26:27.628Z,45.39
2017-04-18T10:27:26.187Z,45.17
2017-04-18T10:28:24.717Z,44.69
2017-04-18T10:29:23.267Z,44.80
2017-04-18T10:30:21.926Z,45.11
2017-04-18T10:31:20.466Z,45.23
2017-04-18T10:32:19.386Z,44.92
2017-04-18T10:33:17.919Z,44.98
2017-04-18T10:34:16.519Z,44.57
2017-04-18T10:35:15.136Z,44.75
2017-04-18T10:36:13.747Z,43.57
2017-04-18T10:37:12.339Z,43.70
2017-04-18T10:38:11.035Z,44.49
2017-04-18T10:39:09.678Z,42.88
2017-04-18T10:40:08.212Z,41.68
2017-04-18T10:41:06.791Z,42.36
2017-04-18T10:42:05.392Z,42.91
2017-04-18T10:43:03.994Z,43.01
2017-04-18T10:44:03.004Z,43.34
2017-04-18T10:45:01.712Z,43.94
2017-04-18T10:46:00.300Z,43.79
2017-04-18T10:46:58.831Z,44.39
2017-04-18T10:47:57.372Z,44.20
2017-04-18T10:48:55.923Z,43.85
2017-04-18T10:49:54.866Z,44.00
2017-04-18T10:50:53.470Z,43.75
2017-04-18T10:51:52.099Z,43.54
2017-04-18T10:52:50.710Z,43.25
2017-04-18T10:53:49.339Z,43.31
2017-04-18T10:54:47.935Z,44.33
2017-04-18T10:55:46.812Z,44.65
2017-04-18T10:56:45.414Z,43.79
2017-04-18T10:57:43.959Z,43.36
2017-04-18T10:58:42.512Z,43.72
2017-04-18T10:59:41.027Z,42.02
2017-04-18T11:00:39.624Z,42.51
2017-04-18T11:01:38.347Z,42.73
2017-04-18T11:02:36.871Z,42.06
2017-04-18T11:03:35.435Z,43.02
2017-04-18T11:04:33.955Z,42.17
2017-04-18T11:05:32.508Z,42.92
2017-04-18T11:06:31.049Z,42.99
2017-04-18T11:07:29.993Z,43.50
2017-04-18T11:08:28.533Z,44.24
2017-04-18T11:09:27.063Z,43.69
2017-04-18T11:10:25.657Z,44.03
2017-04-18T11:11:24.223Z,44.45
2017-04-18T11:12:22.787Z,44.17
2017-04-18T11:13:21.736Z,44.69
2017-04-18T11:14:20.315Z,45.10
2017-04-18T11:15:18.867Z,45.34
2017-04-18T11:16:17.405Z,44.92
2017-04-18T11:17:16.000Z,45.90
2017-04-18T11:18:14.625Z,45.84
2017-04-18T11:19:13.582Z,44.55
2017-04-18T11:20:12.214Z,43.88
2017-04-18T11:21:10.802Z,43.52
2017-04-18T11:22:09.359Z,42.48
2017-04-18T11:23:07.920Z,41.84
2017-04-18T11:24:06.436Z,41.83
2017-04-18T11:25:05.352Z,39.69
2017-04-18T11:26:03.918Z,38.82
2017-04-18T11:27:02.499Z,40.13
2017-04-18T11:28:01.045Z,40.47
2017-04-18T11:28:59.651Z,41.15
2017-04-18T11:29:58.232Z,41.90
2017-04-18T11:30:56.904Z,42.71
2017-04-18T11:31:55.954Z,43.45
2017-04-18T11:32:54.499Z,44.00
2017-04-18T11:33:53.047Z,45.96
2017-04-18T11:34:51.607Z,48.23
2017-04-18T11:35:50.178Z,49.25
2017-04-18T11:36:48.794Z,50.95
2017-04-18T11:37:47.431Z,52.29
2017-04-18T11:38:46.002Z,52.75
2017-04-18T11:39:44.602Z,53.55
2017-04-18T11:40:43.173Z,52.61
2017-04-18T11:41:41.770Z,53.47
2017-04-18T11:42:40.325Z,51.99
2017-04-18T11:43:38.865Z,53.46
2017-04-18T11:44:37.607Z,55.30
2017-04-18T11:45:36.165Z,53.66
2017-04-18T11:46:34.699Z,53.91
2017-04-18T11:47:34.121Z,53.98
2017-04-18T11:48:33.118Z,53.57
2017-04-18T11:49:31.660Z,53.89
2017-04-18T11:50:30.326Z,53.90
2017-04-18T11:51:28.855Z,53.74
2017-04-18T11:52:27.519Z,53.36
2017-04-18T11:53:26.059Z,54.25
2017-04-18T11:54:24.639Z,53.49
2017-04-18T11:55:23.175Z,51.94
2017-04-18T11:56:21.747Z,52.48
2017-04-18T11:57:20.315Z,50.42
2017-04-18T11:58:18.823Z,49.52
2017-04-18T11:59:17.339Z,47.28
2017-04-18T12:00:16.285Z,47.49
2017-04-18T12:01:14.896Z,46.61
2017-04-18T12:02:13.488Z,44.95
2017-04-18T12:03:12.021Z,44.26
2017-04-18T12:04:10.544Z,44.88
2017-04-18T12:05:09.054Z,45.64
2017-04-18T12:06:07.597Z,45.39
2017-04-18T12:07:06.139Z,45.29
2017-04-18T12:08:04.707Z,45.23
2017-04-18T12:09:03.401Z,45.56
2017-04-18T12:10:01.940Z,46.95
2017-04-18T12:11:00.799Z,47.94
2017-04-18T12:11:59.367Z,48.73
2017-04-18T12:12:57.904Z,48.72
2017-04-18T12:13:56.435Z,49.34
2017-04-18T12:14:54.987Z,48.98
2017-04-18T12:15:53.603Z,48.10
2017-04-18T12:16:52.461Z,48.00
2017-04-18T12:17:51.072Z,47.58
2017-04-18T12:18:49.609Z,47.99
2017-04-18T12:19:48.158Z,47.93
2017-04-18T12:20:46.778Z,48.29
2017-04-18T12:21:45.300Z,47.44
2017-04-18T12:22:43.873Z,46.19
2017-04-18T12:23:42.431Z,46.25
2017-04-18T12:24:41.002Z,46.63
2017-04-18T12:25:39.643Z,46.64
2017-04-18T12:26:38.172Z,47.02
2017-04-18T12:27:36.876Z,47.54
2017-04-18T12:28:35.411Z,45.77
2017-04-18T12:29:33.981Z,44.88
2017-04-18T12:30:32.524Z,43.97
2017-04-18T12:31:31.063Z,43.84
2017-04-18T12:32:29.592Z,42.72
2017-04-18T12:33:28.205Z,42.51
2017-04-18T12:34:26.875Z,40.24
2017-04-18T12:35:25.539Z,38.95
2017-04-18T12:36:24.182Z,39.14
2017-04-18T12:37:22.774Z,37.54